Flight Track Log - Related Links

Times and Time Zones

All times are in EDT time to prevent confusion due to time zone crossing. See the TAM3746 flight status page for this flight to view local times or setup timezone preferences in your user account.

Time Position Orientation Groundspeed Altitude Reporting Facility
EDT Latitude Longitude Course Direction KTS MPH feet Rate Location/Type
Sat 10:40:00 PM -21.0840 -48.2110 325° Northwest  Level Estimated
Sat 10:41:00 PM -20.9967 -48.2744 326° Northwest  Level Estimated
Sat 10:42:00 PM -20.9094 -48.3378 326° Northwest  Level Estimated
Sat 10:43:00 PM -20.8220 -48.4010 326° Northwest  Level Estimated
Sat 10:44:00 PM -20.7346 -48.4642 326° Northwest  Level Estimated
Sat 10:45:00 PM -20.6472 -48.5273 326° Northwest  Level Estimated
Sat 10:46:00 PM -20.5598 -48.5904 326° Northwest  Level Estimated
Sat 10:47:00 PM -20.4723 -48.6534 326° Northwest  Level Estimated
Sat 10:48:00 PM -20.3849 -48.7163 326° Northwest  Level Estimated
Sat 10:49:00 PM -20.2974 -48.7791 326° Northwest  Level Estimated
Sat 10:50:00 PM -20.2098 -48.8418 326° Northwest  Level Estimated
Sat 10:51:00 PM -20.1223 -48.9045 326° Northwest  Level Estimated
Sat 10:52:00 PM -20.0347 -48.9671 326° Northwest  Level Estimated
Sat 10:53:00 PM -19.9472 -49.0297 326° Northwest  Level Estimated
Sat 10:54:00 PM -19.8596 -49.0921 326° Northwest  Level Estimated
Sat 10:55:00 PM -19.7719 -49.1545 326° Northwest  Level Estimated
Sat 10:56:00 PM -19.6843 -49.2169 326° Northwest  Level Estimated
Sat 10:57:00 PM -19.5966 -49.2791 326° Northwest  Level Estimated
Sat 10:58:00 PM -19.5089 -49.3414 326° Northwest  Level Estimated
Sat 10:59:00 PM -19.4212 -49.4035 326° Northwest  Level Estimated
Sat 11:00:00 PM -19.3335 -49.4655 326° Northwest  Level Estimated
Sat 11:01:00 PM -19.2457 -49.5275 326° Northwest  Level Estimated
Sat 11:02:00 PM -19.1579 -49.5895 326° Northwest  Level Estimated
Sat 11:03:00 PM -19.0701 -49.6513 326° Northwest  Level Estimated
Sat 11:04:00 PM -18.9823 -49.7132 326° Northwest  Level Estimated
Sat 11:05:00 PM -18.8945 -49.7749 326° Northwest  Level Estimated
Sat 11:06:00 PM -18.8066 -49.8366 326° Northwest  Level Estimated
Sat 11:07:00 PM -18.7187 -49.8982 326° Northwest  Level Estimated
Sat 11:08:00 PM -18.6308 -49.9597 326° Northwest  Level Estimated
Sat 11:09:00 PM -18.5429 -50.0212 326° Northwest  Level Estimated
Sat 11:10:00 PM -18.4550 -50.0826 326° Northwest  Level Estimated
Sat 11:11:00 PM -18.3670 -50.1440 326° Northwest  Level Estimated
Sat 11:12:00 PM -18.2790 -50.2052 327° Northwest  Level Estimated
Sat 11:13:00 PM -18.1910 -50.2665 327° Northwest  Level Estimated
Sat 11:14:00 PM -18.1030 -50.3276 327° Northwest  Level Estimated
Sat 11:15:00 PM -18.0150 -50.3888 327° Northwest  Level Estimated
Sat 11:16:00 PM -17.9269 -50.4498 327° Northwest  Level Estimated
Sat 11:17:00 PM -17.8388 -50.5108 327° Northwest  Level Estimated
Sat 11:18:00 PM -17.7507 -50.5717 327° Northwest  Level Estimated
Sat 11:19:00 PM -17.6626 -50.6326 327° Northwest  Level Estimated
Sat 11:20:00 PM -17.5745 -50.6934 327° Northwest  Level Estimated
Sat 11:21:00 PM -17.4863 -50.7541 327° Northwest  Level Estimated
Sat 11:22:00 PM -17.3982 -50.8148 327° Northwest  Level Estimated
Sat 11:23:00 PM -17.3100 -50.8754 327° Northwest  Level Estimated
Sat 11:24:00 PM -17.2218 -50.9360 327° Northwest  Level Estimated
Sat 11:25:00 PM -17.1336 -50.9965 327° Northwest  Level Estimated
Sat 11:26:00 PM -17.0453 -51.0570 327° Northwest  Level Estimated
Sat 11:27:00 PM -16.9571 -51.1174 327° Northwest  Level Estimated
Sat 11:28:00 PM -16.8688 -51.1777 327° Northwest  Level Estimated
Sat 11:29:00 PM -16.7805 -51.2380 327° Northwest  Level Estimated
Sat 11:30:00 PM -16.6922 -51.2982 327° Northwest  Level Estimated
Sat 11:31:00 PM -16.6038 -51.3584 327° Northwest  Level Estimated
Sat 11:32:00 PM -16.5155 -51.4185 327° Northwest  Level Estimated
Sat 11:33:00 PM -16.4271 -51.4786 327° Northwest  Level Estimated
Sat 11:34:00 PM -16.3388 -51.5386 327° Northwest  Level Estimated
Sat 11:35:00 PM -16.2504 -51.5985 327° Northwest  Level Estimated
Sat 11:36:00 PM -16.1619 -51.6584 327° Northwest  Level Estimated
Sat 11:37:00 PM -16.0735 -51.7183 327° Northwest  Level Estimated
Sat 11:38:00 PM -15.9851 -51.7781 327° Northwest  Level Estimated
Sat 11:39:00 PM -15.8966 -51.8378 327° Northwest  Level Estimated
Sat 11:40:00 PM -15.8081 -51.8975 327° Northwest  Level Estimated
Sat 11:41:00 PM -15.7196 -51.9571 327° Northwest  Level Estimated
Sat 11:42:00 PM -15.6311 -52.0167 327° Northwest  Level Estimated
Sat 11:43:00 PM -15.5426 -52.0762 327° Northwest  Level Estimated
Sat 11:44:00 PM -15.4540 -52.1357 327° Northwest  Level Estimated
Sat 11:45:00 PM -15.3655 -52.1952 327° Northwest  Level Estimated
Sat 11:46:00 PM -15.2769 -52.2545 327° Northwest  Level Estimated
Sat 11:47:00 PM -15.1883 -52.3139 327° Northwest  Level Estimated
Sat 11:48:00 PM -15.0997 -52.3731 327° Northwest  Level Estimated
Sat 11:49:00 PM -15.0111 -52.4324 327° Northwest  Level Estimated
Sat 11:50:00 PM -14.9224 -52.4916 327° Northwest  Level Estimated
Sat 11:51:00 PM -14.8338 -52.5507 327° Northwest  Level Estimated
Sat 11:52:00 PM -14.7451 -52.6098 327° Northwest  Level Estimated
Sat 11:53:00 PM -14.6564 -52.6688 327° Northwest  Level Estimated
Sat 11:54:00 PM -14.5677 -52.7278 327° Northwest  Level Estimated
Sat 11:55:00 PM -14.4790 -52.7867 327° Northwest  Level Estimated
Sat 11:56:00 PM -14.3903 -52.8456 327° Northwest  Level Estimated
Sat 11:57:00 PM -14.3015 -52.9045 327° Northwest  Level Estimated
Sat 11:58:00 PM -14.2128 -52.9633 327° Northwest  Level Estimated
Sat 11:59:00 PM -14.1240 -53.0220 327° Northwest  Level Estimated
Sun 12:00:00 AM -14.0352 -53.0807 327° Northwest  Level Estimated
Sun 12:01:00 AM -13.9464 -53.1394 327° Northwest  Level Estimated
Sun 12:02:00 AM -13.8576 -53.1980 327° Northwest  Level Estimated
Sun 12:03:00 AM -13.7688 -53.2566 327° Northwest  Level Estimated
Sun 12:04:00 AM -13.6799 -53.3151 327° Northwest  Level Estimated
Sun 12:05:00 AM -13.5911 -53.3736 327° Northwest  Level Estimated
Sun 12:06:00 AM -13.5022 -53.4320 327° Northwest  Level Estimated
Sun 12:07:00 AM -13.4133 -53.4904 327° Northwest  Level Estimated
Sun 12:08:00 AM -13.3244 -53.5488 327° Northwest  Level Estimated
Sun 12:09:00 AM -13.2355 -53.6071 327° Northwest  Level Estimated
Sun 12:10:00 AM -13.1466 -53.6654 327° Northwest  Level Estimated
Sun 12:11:00 AM -13.0577 -53.7236 327° Northwest  Level Estimated
Sun 12:12:00 AM -12.9687 -53.7818 327° Northwest  Level Estimated
Sun 12:13:00 AM -12.8798 -53.8399 327° Northwest  Level Estimated
Sun 12:14:00 AM -12.7908 -53.8980 328° Northwest  Level Estimated
Sun 12:15:00 AM -12.7018 -53.9561 328° Northwest  Level Estimated
Sun 12:16:00 AM -12.6128 -54.0141 328° Northwest  Level Estimated
Sun 12:17:00 AM -12.5238 -54.0721 328° Northwest  Level Estimated
Sun 12:18:00 AM -12.4348 -54.1300 328° Northwest  Level Estimated
Sun 12:19:00 AM -12.3457 -54.1879 328° Northwest  Level Estimated
Sun 12:20:00 AM -12.2567 -54.2458 328° Northwest  Level Estimated
Sun 12:21:00 AM -12.1676 -54.3036 328° Northwest  Level Estimated
Sun 12:22:00 AM -12.0786 -54.3614 328° Northwest  Level Estimated
Sun 12:23:00 AM -11.9895 -54.4191 328° Northwest  Level Estimated
Sun 12:24:00 AM -11.9004 -54.4768 328° Northwest  Level Estimated
Sun 12:25:00 AM -11.8112 -54.5345 328° Northwest  Level Estimated
Sun 12:26:00 AM -11.7221 -54.5921 328° Northwest  Level Estimated
Sun 12:27:00 AM -11.6330 -54.6497 328° Northwest  Level Estimated
Sun 12:28:00 AM -11.5439 -54.7073 328° Northwest  Level Estimated
Sun 12:29:00 AM -11.4547 -54.7648 328° Northwest  Level Estimated
Sun 12:30:00 AM -11.3655 -54.8223 328° Northwest  Level Estimated
Sun 12:31:00 AM -11.2764 -54.8797 328° Northwest  Level Estimated
Sun 12:32:00 AM -11.1872 -54.9371 328° Northwest  Level Estimated
Sun 12:33:00 AM -11.0980 -54.9945 328° Northwest  Level Estimated
Sun 12:34:00 AM -11.0088 -55.0519 328° Northwest  Level Estimated
Sun 12:35:00 AM -10.9195 -55.1092 328° Northwest  Level Estimated
Sun 12:36:00 AM -10.8303 -55.1664 328° Northwest  Level Estimated
Sun 12:37:00 AM -10.7411 -55.2237 328° Northwest  Level Estimated
Sun 12:38:00 AM -10.6518 -55.2809 328° Northwest  Level Estimated
Sun 12:39:00 AM -10.5626 -55.3381 328° Northwest  Level Estimated
Sun 12:40:00 AM -10.4733 -55.3952 328° Northwest  Level Estimated
Sun 12:41:00 AM -10.3840 -55.4523 328° Northwest  Level Estimated
Sun 12:42:00 AM -10.2947 -55.5094 328° Northwest  Level Estimated
Sun 12:43:00 AM -10.2054 -55.5664 328° Northwest  Level Estimated
Sun 12:44:00 AM -10.1161 -55.6234 328° Northwest  Level Estimated
Sun 12:45:00 AM -10.0268 -55.6804 328° Northwest  Level Estimated
Sun 12:46:00 AM -9.9375 -55.7373 328° Northwest  Level Estimated
Sun 12:47:00 AM -9.8481 -55.7943 328° Northwest  Level Estimated
Sun 12:48:00 AM -9.7588 -55.8511 328° Northwest  Level Estimated
Sun 12:49:00 AM -9.6694 -55.9080 328° Northwest  Level Estimated
Sun 12:50:00 AM -9.5800 -55.9648 328° Northwest  Level Estimated
Sun 12:51:00 AM -9.4907 -56.0216 328° Northwest  Level Estimated
Sun 12:52:00 AM -9.4013 -56.0784 328° Northwest  Level Estimated
Sun 12:53:00 AM -9.3119 -56.1351 328° Northwest  Level Estimated
Sun 12:54:00 AM -9.2225 -56.1918 328° Northwest  Level Estimated
Sun 12:55:00 AM -9.1330 -56.2485 328° Northwest  Level Estimated
Sun 12:56:00 AM -9.0436 -56.3051 328° Northwest  Level Estimated
Sun 12:57:00 AM -8.9542 -56.3617 328° Northwest  Level Estimated
Sun 12:58:00 AM -8.8647 -56.4183 328° Northwest  Level Estimated
Sun 12:59:00 AM -8.7753 -56.4749 328° Northwest  Level Estimated
Sun 01:00:00 AM -8.6858 -56.5314 328° Northwest  Level Estimated
Sun 01:01:00 AM -8.5964 -56.5879 328° Northwest  Level Estimated
Sun 01:02:00 AM -8.5069 -56.6444 328° Northwest  Level Estimated
Sun 01:03:00 AM -8.4174 -56.7009 328° Northwest  Level Estimated
Sun 01:04:00 AM -8.3279 -56.7573 328° Northwest  Level Estimated
Sun 01:05:00 AM -8.2384 -56.8137 328° Northwest  Level Estimated
Sun 01:06:00 AM -8.1489 -56.8701 328° Northwest  Level Estimated
Sun 01:07:00 AM -8.0594 -56.9264 328° Northwest  Level Estimated
Sun 01:08:00 AM -7.9699 -56.9828 328° Northwest  Level Estimated
Sun 01:09:00 AM -7.8803 -57.0391 328° Northwest  Level Estimated
Sun 01:10:00 AM -7.7908 -57.0953 328° Northwest  Level Estimated
Sun 01:11:00 AM -7.7013 -57.1516 328° Northwest  Level Estimated
Sun 01:12:00 AM -7.6117 -57.2078 328° Northwest  Level Estimated
Sun 01:13:00 AM -7.5221 -57.2640 328° Northwest  Level Estimated
Sun 01:14:00 AM -7.4326 -57.3202 328° Northwest  Level Estimated
Sun 01:15:00 AM -7.3430 -57.3764 328° Northwest  Level Estimated
Sun 01:16:00 AM -7.2534 -57.4325 328° Northwest  Level Estimated
Sun 01:17:00 AM -7.1638 -57.4887 328° Northwest  Level Estimated
Sun 01:18:00 AM -7.0742 -57.5448 328° Northwest  Level Estimated
Sun 01:19:00 AM -6.9846 -57.6008 328° Northwest  Level Estimated
Sun 01:20:00 AM -6.8950 -57.6569 328° Northwest  Level Estimated
Sun 01:21:00 AM -6.8054 -57.7129 328° Northwest  Level Estimated
Sun 01:22:00 AM -6.7158 -57.7689 328° Northwest  Level Estimated
Sun 01:23:00 AM -6.6262 -57.8249 328° Northwest  Level Estimated
Sun 01:24:00 AM -6.5365 -57.8809 328° Northwest  Level Estimated
Sun 01:25:00 AM -6.4469 -57.9368 328° Northwest  Level Estimated
Sun 01:26:00 AM -6.3573 -57.9927 328° Northwest  Level Estimated
Sun 01:27:00 AM -6.2676 -58.0487 328° Northwest  Level Estimated
Sun 01:28:00 AM -6.1685 -58.1105 328° Northwest  Level Estimated
Sun 01:29:00 AM -6.0693 -58.1722 328° Northwest  Level Estimated
Sun 01:30:00 AM -5.9701 -58.2340 328° Northwest  Level Estimated
Sun 01:31:00 AM -5.8710 -58.2957 328° Northwest  Level Estimated
Sun 01:32:00 AM -5.7718 -58.3574 328° Northwest  Level Estimated
Sun 01:33:00 AM -5.6726 -58.4191 328° Northwest  Level Estimated
Sun 01:34:00 AM -5.5735 -58.4808 328° Northwest  Level Estimated
Sun 01:35:00 AM -5.4743 -58.5424 328° Northwest  Level Estimated
Sun 01:36:00 AM -5.3751 -58.6041 328° Northwest  Level Estimated
Sun 01:37:00 AM -5.2759 -58.6657 328° Northwest  Level Estimated
Sun 01:38:00 AM -5.1767 -58.7273 328° Northwest  Level Estimated
Sun 01:39:00 AM -5.0774 -58.7888 328° Northwest  Level Estimated
Sun 01:40:00 AM -4.9782 -58.8504 328° Northwest  Level Estimated
Sun 01:41:00 AM -4.8790 -58.9119 328° Northwest  Level Estimated
Sun 01:42:00 AM -4.7798 -58.9734 328° Northwest  Level Estimated
Sun 01:43:00 AM -4.6805 -59.0349 328° Northwest  Level Estimated
Sun 01:44:00 AM -4.5813 -59.0964 328° Northwest  Level Estimated
Sun 01:45:00 AM -4.4820 -59.1579 328° Northwest  Level Estimated
Sun 01:46:00 AM -4.3828 -59.2193 328° Northwest  Level Estimated
Sun 01:47:00 AM -4.2835 -59.2807 328° Northwest  Level Estimated
Sun 01:48:00 AM -4.1843 -59.3422 328° Northwest  Level Estimated
Sun 01:49:00 AM -4.0850 -59.4035 328° Northwest  Level Estimated
Sun 01:50:00 AM -3.9857 -59.4649 328° Northwest  Level Estimated
Sun 01:51:00 AM -3.8865 -59.5263 328° Northwest  Level Estimated
Sun 01:52:00 AM -3.7872 -59.5877 328° Northwest  Level Estimated
Sun 01:53:00 AM -3.6879 -59.6490 328° Northwest  Level Estimated
Sun 01:54:00 AM -3.5886 -59.7103 328° Northwest  Level Estimated
Sun 01:55:00 AM -3.4893 -59.7716 328° Northwest  Level Estimated
Sun 01:56:00 AM -3.3900 -59.8329 328° Northwest  Level Estimated
Sun 01:57:00 AM -3.2907 -59.8942 328° Northwest  Level Estimated
Sun 01:58:00 AM -3.1914 -59.9555 328° Northwest  Level Estimated

Login

Don't have an account? Register now (free) for customized features, flight alerts, and more!